Etusivu
METAR-TAF:

METAR-TAF

Lentoasemat :

Rochelle Municipal Airport (Koritz Field)

Rochelle, Illinois, Yhdysvallat

Leveyspiiri: 41-53-35N, Pituuspiiri: 089-04-42W, korkeus merenpinnasta: 238 m

Tämänhetkinen sää

Tämä raportti tehtiin 24 minuuttia sitten, kello 09.55 UTC
Tuuli 15 kn lännestä/luoteesta puuskistuen 21 kn:hen
Lämpötila 1°C
Kosteus 93%
Ilmanpaine 1014 hPa
Näkyvyys: 16.1 km
Pilvistä 1900 ft:n korkeudessa

METAR: KRPJ 180955Z AUTO 30015G21KT 10SM OVC019 01/00 A2993 RMK AO2 T00111003

Aika: 04:19 (10:19 UTC)


TAF: puuttuu

Säähavainnot ja -ennusteet yli 4000 lentoasemalta (METAR- ja TAF-raportit).

Käytössä olevat sääasemat on merkitty karttaan keltaisilla ja punaisilla pisteillä.

Aseta hiiri pisteen päälle nähdäksesi sääaseman nimen.

Klikkaa sitten nähdäksesi säähavainnot ja -ennusteet.

Kartan vaihtaminen: klikkaa mustalla rastilla varustettuja vihreitä pisteitä, niin voit zoomata sisään; viivalla varustettua vihreää pistettä, niin voit zoomata ulos tai vihreitä nuolia, niin pääset viereisille kartoille.


METAR-TAF: